Time;durP1;ratioP1;P1;durP2;ratioP2;P2;SDS_P1;SDS_P2;PMS_P1;PMS_P2;Temp;Humidity;BMP_temperature;BMP_pressure;BME280_temperature;BME280_humidity;BME280_pressure;Samples;Min_cycle;Max_cycle;Signal;HPM_P1;HPM_P2
2023/08/15 00:00:42;;;;;;;6.82;4.57;;;17.20;99.90;;;;;;4960129;28;20043;-88
2023/08/15 00:03:08;;;;;;;5.47;4.57;;;17.10;99.90;;;;;;4959356;28;20385;-88
2023/08/15 00:05:36;;;;;;;5.05;3.90;;;17.10;99.90;;;;;;4958100;28;20038;-88
2023/08/15 00:08:03;;;;;;;5.82;4.40;;;17.10;99.90;;;;;;4959407;28;20134;-89
2023/08/15 00:10:28;;;;;;;6.88;4.75;;;17.10;99.90;;;;;;4943106;28;20487;-87
2023/08/15 00:12:54;;;;;;;6.50;4.90;;;17.10;99.90;;;;;;4956897;28;20134;-88
2023/08/15 00:15:20;;;;;;;5.47;4.50;;;17.10;99.90;;;;;;4957680;28;20043;-88
2023/08/15 00:17:45;;;;;;;8.23;5.38;;;17.10;99.90;;;;;;4961726;28;20104;-88
2023/08/15 00:20:11;;;;;;;6.60;4.80;;;17.10;99.90;;;;;;4951279;28;20047;-87
2023/08/15 00:22:37;;;;;;;6.85;4.45;;;17.00;99.90;;;;;;4978769;28;20181;-89
2023/08/15 00:25:03;;;;;;;5.10;4.03;;;17.00;99.90;;;;;;4957026;28;20043;-88
2023/08/15 00:27:28;;;;;;;4.85;3.83;;;17.00;99.90;;;;;;4946841;28;20089;-88
2023/08/15 00:29:54;;;;;;;6.03;4.28;;;17.00;99.90;;;;;;4962248;28;20043;-90
2023/08/15 00:32:19;;;;;;;5.13;4.28;;;17.00;99.90;;;;;;4959616;28;20449;-87
2023/08/15 00:34:45;;;;;;;6.03;4.22;;;17.00;99.90;;;;;;4975052;28;20130;-88
2023/08/15 00:37:13;;;;;;;3.72;3.17;;;17.10;99.90;;;;;;4961862;28;20474;-87
2023/08/15 00:39:39;;;;;;;3.75;2.85;;;17.00;99.90;;;;;;4959777;28;20897;-87
2023/08/15 00:42:05;;;;;;;5.28;3.38;;;17.00;99.90;;;;;;4956535;28;20058;-87
2023/08/15 00:44:30;;;;;;;3.78;2.90;;;17.00;99.90;;;;;;4961536;28;20253;-87
2023/08/15 00:46:56;;;;;;;4.20;3.22;;;16.90;99.90;;;;;;4959404;28;20223;-86
2023/08/15 00:49:22;;;;;;;4.00;3.60;;;16.90;99.90;;;;;;4957646;28;20475;-88
2023/08/15 00:51:49;;;;;;;5.47;3.67;;;17.00;99.90;;;;;;4940922;28;20418;-88
2023/08/15 00:54:18;;;;;;;6.00;4.68;;;17.00;99.90;;;;;;4958778;28;20078;-87
2023/08/15 00:56:44;;;;;;;5.35;4.85;;;17.00;99.90;;;;;;4959615;28;20060;-87
2023/08/15 00:59:09;;;;;;;6.68;4.72;;;17.10;99.90;;;;;;4944457;28;20578;-87
2023/08/15 01:01:36;;;;;;;9.48;4.82;;;16.90;99.90;;;;;;4975440;28;20034;-88
2023/08/15 01:04:02;;;;;;;7.75;5.43;;;17.00;99.90;;;;;;4954974;28;20042;-87
2023/08/15 01:06:28;;;;;;;6.85;4.90;;;17.00;99.90;;;;;;4955080;28;20074;-88
2023/08/15 01:08:54;;;;;;;5.55;4.38;;;17.00;99.90;;;;;;4959511;28;20050;-88
2023/08/15 01:11:24;;;;;;;9.30;4.88;;;17.10;99.90;;;;;;4943581;28;20105;-89
2023/08/15 01:14:08;;;;;;;8.57;5.13;;;17.10;99.90;;;;;;4957759;28;20046;-87
2023/08/15 01:16:38;;;;;;;11.75;5.95;;;17.00;99.90;;;;;;4952958;28;20050;-87
2023/08/15 01:19:37;;;;;;;8.90;5.65;;;17.10;99.90;;;;;;4960057;28;20134;-88
2023/08/15 01:22:10;;;;;;;7.95;5.45;;;17.00;99.90;;;;;;4940060;28;20070;-89
2023/08/15 01:24:36;;;;;;;9.93;5.80;;;17.00;99.90;;;;;;4957853;28;20043;-89
2023/08/15 01:27:05;;;;;;;9.45;6.30;;;17.10;99.90;;;;;;4960145;28;20042;-89
2023/08/15 01:29:31;;;;;;;12.63;6.00;;;17.10;99.90;;;;;;4957334;28;20042;-88
2023/08/15 01:32:47;;;;;;;7.25;5.93;;;17.00;99.90;;;;;;4959838;28;20046;-88
2023/08/15 01:35:35;;;;;;;9.55;6.55;;;17.10;99.90;;;;;;4864584;29;20048;-89
2023/08/15 01:38:17;;;;;;;9.90;6.45;;;17.20;99.90;;;;;;4889484;29;20056;-88
2023/08/15 01:40:47;;;;;;;10.75;6.78;;;17.20;99.90;;;;;;4935063;28;20128;-87
2023/08/15 01:43:15;;;;;;;9.02;6.57;;;17.20;99.90;;;;;;4954968;28;20502;-88
2023/08/15 01:45:41;;;;;;;18.92;8.30;;;17.20;99.90;;;;;;4958161;28;20074;-87
2023/08/15 01:48:07;;;;;;;9.77;7.05;;;17.20;99.90;;;;;;4953546;28;20542;-89
2023/08/15 01:50:33;;;;;;;11.38;7.70;;;17.20;99.90;;;;;;4956563;28;20477;-87
2023/08/15 01:52:58;;;;;;;8.95;7.50;;;17.20;99.90;;;;;;4959540;28;20126;-88
2023/08/15 01:55:24;;;;;;;10.20;6.90;;;17.30;99.90;;;;;;4975133;28;20278;-88
2023/08/15 01:57:50;;;;;;;15.65;7.55;;;17.30;99.90;;;;;;4959702;28;20074;-89
2023/08/15 02:00:15;;;;;;;12.80;7.90;;;17.30;99.90;;;;;;4941512;28;20051;-88
2023/08/15 02:02:42;;;;;;;13.60;7.65;;;17.30;99.90;;;;;;4962741;28;20034;-89
2023/08/15 02:05:07;;;;;;;13.93;7.57;;;17.40;99.90;;;;;;4941605;28;20046;-89
2023/08/15 02:07:33;;;;;;;12.60;7.53;;;17.40;99.90;;;;;;4961607;28;20512;-90
2023/08/15 02:09:59;;;;;;;11.85;7.68;;;17.40;99.90;;;;;;4941135;28;20083;-89
2023/08/15 02:12:24;;;;;;;11.38;7.88;;;17.50;99.90;;;;;;4961027;28;20201;-88
2023/08/15 02:14:50;;;;;;;14.73;8.45;;;17.40;99.90;;;;;;4961129;28;20128;-89
2023/08/15 02:17:16;;;;;;;12.32;7.78;;;17.50;99.90;;;;;;4958756;28;20043;-88
2023/08/15 02:19:41;;;;;;;12.52;8.38;;;17.40;99.90;;;;;;4939350;28;20426;-90
2023/08/15 02:22:07;;;;;;;10.63;8.10;;;17.50;99.90;;;;;;4973479;28;20038;-89
2023/08/15 02:24:33;;;;;;;12.65;7.85;;;17.50;99.90;;;;;;4955638;28;20046;-88
2023/08/15 02:26:58;;;;;;;10.85;8.10;;;17.50;99.90;;;;;;4957094;28;20189;-89
2023/08/15 02:29:24;;;;;;;11.35;8.43;;;17.50;99.90;;;;;;4972967;28;20078;-88
2023/08/15 02:31:49;;;;;;;11.63;7.80;;;17.50;99.90;;;;;;4958443;28;20051;-88
2023/08/15 02:34:18;;;;;;;11.15;8.15;;;17.60;99.90;;;;;;4973636;28;20481;-88
2023/08/15 02:36:47;;;;;;;10.30;8.40;;;17.60;99.90;;;;;;4957537;28;20043;-88
2023/08/15 02:39:15;;;;;;;10.57;7.95;;;17.60;99.90;;;;;;4973957;28;20047;-88
2023/08/15 02:41:41;;;;;;;11.07;8.60;;;17.60;99.90;;;;;;4955199;28;20075;-88
2023/08/15 02:44:10;;;;;;;9.52;8.00;;;17.60;99.90;;;;;;4941890;28;20039;-88
2023/08/15 02:46:35;;;;;;;9.52;8.02;;;17.50;99.90;;;;;;4956927;28;20082;-88
2023/08/15 02:49:01;;;;;;;12.20;7.95;;;17.60;99.90;;;;;;4955935;28;20633;-88
2023/08/15 02:51:27;;;;;;;13.32;7.95;;;17.50;99.90;;;;;;4964003;28;20716;-88
2023/08/15 02:53:52;;;;;;;12.18;8.13;;;17.60;99.90;;;;;;4958962;28;20043;-89
2023/08/15 02:56:18;;;;;;;14.07;8.63;;;17.50;99.90;;;;;;4963570;28;20398;-90
2023/08/15 02:58:44;;;;;;;14.90;9.25;;;17.60;99.90;;;;;;4947305;28;20047;-87
2023/08/15 03:01:10;;;;;;;13.77;9.20;;;17.60;99.90;;;;;;4960540;28;20130;-88
2023/08/15 03:03:35;;;;;;;15.73;9.18;;;17.60;99.90;;;;;;4961510;28;20260;-88
2023/08/15 03:06:02;;;;;;;14.00;9.13;;;17.60;99.90;;;;;;4941840;28;20038;-88
2023/08/15 03:08:29;;;;;;;12.38;8.93;;;17.50;99.90;;;;;;4980940;28;20273;-88
2023/08/15 03:10:54;;;;;;;15.35;9.13;;;17.50;99.90;;;;;;4962298;28;20034;-90
2023/08/15 03:13:20;;;;;;;12.90;9.00;;;17.50;99.90;;;;;;4964729;28;20108;-88
2023/08/15 03:16:04;;;;;;;12.82;9.40;;;17.60;99.90;;;;;;4982797;28;20077;-89
2023/08/15 03:18:29;;;;;;;11.43;8.55;;;17.60;99.90;;;;;;4978488;28;20125;-87
2023/08/15 03:21:02;;;;;;;14.65;9.07;;;17.60;99.90;;;;;;4946900;28;20053;-87
2023/08/15 03:23:28;;;;;;;11.43;8.73;;;17.60;99.90;;;;;;4964182;28;20034;-88
2023/08/15 03:25:58;;;;;;;13.88;8.40;;;17.70;99.90;;;;;;4983942;28;20540;-88
2023/08/15 03:28:27;;;;;;;13.38;8.77;;;17.70;99.90;;;;;;4957339;28;20486;-87
2023/08/15 03:30:53;;;;;;;17.80;9.00;;;17.70;99.90;;;;;;4975604;28;20042;-88
2023/08/15 03:33:19;;;;;;;12.95;9.07;;;17.70;99.90;;;;;;4962148;28;20478;-87
2023/08/15 03:35:50;;;;;;;14.30;9.57;;;17.70;99.90;;;;;;4946087;28;20656;-87
2023/08/15 03:38:20;;;;;;;11.93;9.55;;;17.70;99.90;;;;;;4960533;28;20074;-87
2023/08/15 03:40:47;;;;;;;13.68;8.95;;;17.80;99.90;;;;;;4963152;28;20050;-88
2023/08/15 03:43:13;;;;;;;10.80;9.55;;;17.80;99.90;;;;;;4961522;28;20496;-87
2023/08/15 03:45:39;;;;;;;17.30;9.48;;;17.90;99.90;;;;;;4981390;28;20439;-86
2023/08/15 03:48:07;;;;;;;15.20;10.30;;;17.90;99.90;;;;;;4962740;28;20035;-90
2023/08/15 03:50:34;;;;;;;12.02;8.52;;;17.90;99.90;;;;;;4976610;28;20133;-88
2023/08/15 03:53:00;;;;;;;14.18;9.55;;;17.80;99.90;;;;;;4945225;28;20053;-89
2023/08/15 03:55:26;;;;;;;16.13;9.50;;;17.80;99.90;;;;;;4958895;28;20529;-89
2023/08/15 03:57:51;;;;;;;14.70;10.48;;;17.80;99.90;;;;;;4970237;28;20093;-89
2023/08/15 04:00:21;;;;;;;15.32;10.73;;;17.80;99.90;;;;;;4964589;28;20049;-87
2023/08/15 04:02:47;;;;;;;14.90;10.32;;;17.80;99.90;;;;;;4960697;28;20053;-88
2023/08/15 04:05:14;;;;;;;15.43;10.10;;;17.80;99.90;;;;;;4948011;28;20727;-87
2023/08/15 04:07:40;;;;;;;14.85;11.02;;;17.80;99.90;;;;;;4948696;28;20066;-87
2023/08/15 04:10:06;;;;;;;14.73;10.02;;;17.80;99.90;;;;;;4948149;28;20054;-88
2023/08/15 04:12:33;;;;;;;15.32;11.35;;;17.80;99.90;;;;;;4977298;28;20049;-88
2023/08/15 04:14:59;;;;;;;16.73;12.55;;;17.80;99.90;;;;;;4957594;28;20069;-85
2023/08/15 04:17:26;;;;;;;19.38;13.05;;;17.90;99.90;;;;;;4963000;28;20492;-88
2023/08/15 04:19:54;;;;;;;21.08;13.90;;;18.00;99.90;;;;;;4946996;28;20049;-86
2023/08/15 04:22:19;;;;;;;19.75;13.88;;;18.00;99.90;;;;;;4976247;28;20214;-87
2023/08/15 04:24:45;;;;;;;23.30;14.07;;;18.00;99.90;;;;;;4962304;28;20128;-87
2023/08/15 04:27:11;;;;;;;17.15;13.98;;;18.00;99.90;;;;;;4978376;28;20426;-87
2023/08/15 04:29:40;;;;;;;22.73;14.60;;;18.00;99.90;;;;;;4962816;28;20120;-88
2023/08/15 04:32:06;;;;;;;22.60;14.88;;;18.00;99.90;;;;;;4960548;28;20457;-88
2023/08/15 04:34:34;;;;;;;19.05;13.57;;;18.00;99.90;;;;;;4944844;28;20100;-88
2023/08/15 04:36:59;;;;;;;20.10;13.73;;;17.90;99.90;;;;;;4965059;28;20042;-86
2023/08/15 04:39:27;;;;;;;19.35;14.02;;;17.90;99.90;;;;;;4958101;28;20045;-88
2023/08/15 04:41:52;;;;;;;18.20;13.20;;;17.80;99.90;;;;;;4961449;28;20096;-87
2023/08/15 04:44:18;;;;;;;17.77;13.85;;;17.90;99.90;;;;;;4958614;28;20046;-87
2023/08/15 04:46:43;;;;;;;18.50;14.40;;;17.90;99.90;;;;;;4949156;28;20049;-88
2023/08/15 04:49:09;;;;;;;19.20;13.90;;;17.80;99.90;;;;;;4975282;28;20041;-88
2023/08/15 04:51:39;;;;;;;19.88;13.57;;;17.70;99.90;;;;;;4979810;28;20042;-88
2023/08/15 04:54:04;;;;;;;18.02;13.80;;;17.70;99.90;;;;;;4957324;28;20047;-87
2023/08/15 04:56:30;;;;;;;19.35;14.65;;;17.80;99.90;;;;;;4959682;28;20437;-88
2023/08/15 04:58:56;;;;;;;18.50;13.50;;;17.80;99.90;;;;;;4978262;28;20144;-87
2023/08/15 05:01:24;;;;;;;16.85;13.23;;;17.80;99.90;;;;;;4957804;28;20058;-88
2023/08/15 05:03:50;;;;;;;16.45;13.90;;;17.80;99.90;;;;;;4962148;28;20042;-89
2023/08/15 05:06:16;;;;;;;19.90;13.98;;;17.90;99.90;;;;;;4973944;28;20474;-87
2023/08/15 05:08:42;;;;;;;21.05;13.73;;;17.90;99.90;;;;;;4957732;28;20042;-87
2023/08/15 05:11:08;;;;;;;17.33;13.88;;;17.90;99.90;;;;;;4976523;28;20160;-87
2023/08/15 05:13:34;;;;;;;19.13;13.77;;;17.90;99.90;;;;;;4959586;28;20139;-88
2023/08/15 05:16:00;;;;;;;16.75;12.57;;;17.90;99.90;;;;;;4961019;28;20077;-89
2023/08/15 05:18:25;;;;;;;17.30;13.13;;;17.90;99.90;;;;;;4961914;28;20064;-88
2023/08/15 05:20:51;;;;;;;16.85;12.05;;;18.00;99.90;;;;;;4959575;28;20042;-87
2023/08/15 05:23:17;;;;;;;17.70;12.75;;;18.00;99.90;;;;;;4963148;28;20602;-87
2023/08/15 05:25:46;;;;;;;18.67;12.57;;;18.00;99.90;;;;;;4943714;28;20057;-89
2023/08/15 05:28:11;;;;;;;14.60;11.20;;;18.10;99.90;;;;;;4944995;28;20038;-87
2023/08/15 05:30:38;;;;;;;15.73;11.93;;;18.10;99.90;;;;;;4961034;28;20131;-88
2023/08/15 05:33:04;;;;;;;17.40;11.57;;;18.10;99.90;;;;;;4978634;28;20042;-88
2023/08/15 05:35:30;;;;;;;15.98;11.52;;;18.10;99.90;;;;;;4977952;28;20034;-87
2023/08/15 05:37:56;;;;;;;15.48;11.63;;;18.10;99.90;;;;;;4961911;28;20085;-88
2023/08/15 05:40:22;;;;;;;16.77;10.85;;;18.10;99.90;;;;;;4979764;28;20137;-87
2023/08/15 05:42:51;;;;;;;15.13;10.48;;;18.20;99.90;;;;;;4963642;28;20060;-88
2023/08/15 05:45:16;;;;;;;16.80;10.95;;;18.20;99.90;;;;;;4976156;28;20140;-87
2023/08/15 05:47:42;;;;;;;13.15;9.77;;;18.20;99.90;;;;;;4948866;28;20526;-87
2023/08/15 05:50:08;;;;;;;16.65;10.10;;;18.30;99.90;;;;;;4958650;28;20042;-88
2023/08/15 05:52:34;;;;;;;12.93;9.90;;;18.30;99.90;;;;;;4945623;28;20351;-88
2023/08/15 05:54:59;;;;;;;16.42;10.38;;;18.30;99.90;;;;;;4960881;28;20108;-89
2023/08/15 05:57:25;;;;;;;13.15;9.77;;;18.30;99.90;;;;;;4974913;28;20104;-88
2023/08/15 05:59:54;;;;;;;12.85;9.30;;;18.40;99.90;;;;;;4977850;28;20521;-88
2023/08/15 06:02:19;;;;;;;13.27;9.43;;;18.40;99.90;;;;;;4957597;28;20046;-88
2023/08/15 06:04:45;;;;;;;13.82;9.50;;;18.30;99.90;;;;;;4981472;28;20027;-87
2023/08/15 06:07:14;;;;;;;12.73;8.65;;;18.30;99.90;;;;;;4962570;28;20054;-87
2023/08/15 06:09:39;;;;;;;13.82;8.82;;;18.30;99.90;;;;;;4960101;28;20089;-87
2023/08/15 06:12:05;;;;;;;15.38;8.80;;;18.20;99.90;;;;;;4960891;28;20077;-89
2023/08/15 06:14:32;;;;;;;13.35;8.18;;;18.20;99.90;;;;;;4961015;28;20042;-88
2023/08/15 06:16:58;;;;;;;10.25;7.85;;;18.20;99.90;;;;;;4949370;28;20425;-88
2023/08/15 06:19:26;;;;;;;10.80;7.90;;;18.10;99.90;;;;;;4965668;28;20116;-88
2023/08/15 06:21:52;;;;;;;11.93;8.27;;;18.10;99.90;;;;;;4983842;28;20121;-87
2023/08/15 06:24:17;;;;;;;10.23;8.02;;;18.10;99.90;;;;;;4960649;28;20035;-89
2023/08/15 06:26:43;;;;;;;12.93;8.77;;;18.10;99.90;;;;;;4982199;28;20034;-87
2023/08/15 06:29:08;;;;;;;13.93;8.57;;;18.40;99.90;;;;;;4967959;28;20460;-87
2023/08/15 06:31:38;;;;;;;13.55;8.95;;;18.50;99.90;;;;;;4949134;28;20125;-88
2023/08/15 06:34:04;;;;;;;14.50;8.02;;;18.40;99.90;;;;;;4962605;28;20038;-89
2023/08/15 06:36:31;;;;;;;10.13;8.00;;;18.50;99.90;;;;;;4963148;28;20150;-87
2023/08/15 06:38:57;;;;;;;10.48;7.55;;;18.50;99.90;;;;;;4973674;28;20134;-88
2023/08/15 06:41:22;;;;;;;12.30;7.57;;;18.50;99.90;;;;;;4954089;28;20149;-88
2023/08/15 06:43:48;;;;;;;16.33;8.55;;;18.60;99.90;;;;;;4979166;28;20057;-88
2023/08/15 06:46:16;;;;;;;11.00;7.43;;;18.80;99.90;;;;;;4965168;28;20030;-89
2023/08/15 06:48:42;;;;;;;12.00;7.45;;;18.90;99.90;;;;;;4967973;28;20038;-89
2023/08/15 06:51:08;;;;;;;11.73;7.25;;;19.00;99.90;;;;;;4947739;28;20408;-88
2023/08/15 06:53:33;;;;;;;10.75;7.40;;;19.00;99.90;;;;;;4981255;28;20046;-88
2023/08/15 06:55:59;;;;;;;10.88;7.55;;;19.20;99.90;;;;;;4960628;28;20043;-89
2023/08/15 06:58:26;;;;;;;10.48;6.63;;;19.20;99.90;;;;;;4963352;28;20150;-87
2023/08/15 07:00:51;;;;;;;12.02;6.47;;;19.30;99.90;;;;;;4962434;28;20119;-88
2023/08/15 07:03:17;;;;;;;9.95;6.70;;;19.40;99.90;;;;;;4965859;28;20114;-88
2023/08/15 07:05:44;;;;;;;10.75;6.47;;;19.40;99.90;;;;;;4961141;28;20049;-88
2023/08/15 07:08:10;;;;;;;12.70;6.88;;;19.40;99.90;;;;;;4962616;28;20382;-87
2023/08/15 07:10:36;;;;;;;10.07;6.13;;;19.50;99.90;;;;;;4962107;28;20193;-87
2023/08/15 07:13:02;;;;;;;11.15;5.90;;;19.50;99.90;;;;;;4962398;28;20159;-88
2023/08/15 07:15:28;;;;;;;8.80;5.55;;;19.60;99.90;;;;;;4961896;28;20043;-87
2023/08/15 07:17:54;;;;;;;10.18;5.45;;;19.60;99.90;;;;;;4981346;28;20105;-87
2023/08/15 07:20:20;;;;;;;13.55;6.22;;;19.80;99.90;;;;;;4965157;28;20070;-88
2023/08/15 07:22:46;;;;;;;7.53;5.25;;;20.00;99.90;;;;;;4962223;28;20049;-86
2023/08/15 07:25:15;;;;;;;10.93;5.70;;;20.20;99.90;;;;;;4964450;28;20038;-87
2023/08/15 07:27:40;;;;;;;15.23;6.05;;;20.40;99.90;;;;;;4979824;28;20126;-87
2023/08/15 07:30:07;;;;;;;10.77;5.60;;;20.50;99.90;;;;;;4946396;28;20220;-87
2023/08/15 07:32:38;;;;;;;10.57;4.75;;;20.60;99.90;;;;;;4951208;28;20061;-89
2023/08/15 07:35:07;;;;;;;8.27;4.97;;;20.70;99.90;;;;;;4949382;28;20065;-88
2023/08/15 07:37:33;;;;;;;8.48;4.13;;;20.70;99.90;;;;;;4963151;28;20125;-87
2023/08/15 07:40:10;;;;;;;10.32;4.40;;;20.70;99.90;;;;;;4947784;28;20078;-88
2023/08/15 07:42:36;;;;;;;7.18;4.00;;;20.80;99.90;;;;;;4962878;28;20053;-89
2023/08/15 07:45:02;;;;;;;6.32;3.40;;;20.80;99.90;;;;;;4962782;28;20519;-89
2023/08/15 07:47:28;;;;;;;9.82;3.60;;;20.60;99.90;;;;;;4964809;28;20217;-87
2023/08/15 07:50:13;;;;;;;8.02;3.65;;;20.80;99.90;;;;;;4980076;28;20049;-88
2023/08/15 07:52:43;;;;;;;6.00;3.40;;;21.00;99.90;;;;;;4978903;28;20070;-88
2023/08/15 07:55:09;;;;;;;9.48;3.25;;;20.80;99.90;;;;;;4979332;28;20049;-89
2023/08/15 07:57:35;;;;;;;7.65;4.07;;;20.70;99.90;;;;;;4948274;28;20053;-87
2023/08/15 08:00:00;;;;;;;5.88;4.13;;;20.80;99.90;;;;;;4957897;28;20053;-86
2023/08/15 08:02:26;;;;;;;8.98;4.07;;;20.80;99.90;;;;;;4964500;28;20034;-87
2023/08/15 08:04:52;;;;;;;31.92;4.65;;;21.20;99.90;;;;;;4959819;28;20048;-88
2023/08/15 08:07:18;;;;;;;10.88;4.32;;;21.30;99.90;;;;;;4947944;28;20137;-88
2023/08/15 08:09:46;;;;;;;13.23;4.30;;;21.30;99.90;;;;;;4980790;28;20077;-89
2023/08/15 08:12:12;;;;;;;7.70;3.78;;;21.30;99.90;;;;;;4962135;28;20052;-87
2023/08/15 08:14:37;;;;;;;8.13;3.30;;;21.20;99.90;;;;;;4960767;28;20042;-90
2023/08/15 08:17:04;;;;;;;7.93;3.83;;;21.10;99.90;;;;;;4948855;28;20102;-87
2023/08/15 08:19:29;;;;;;;8.90;3.83;;;21.10;99.90;;;;;;4957655;28;20046;-87
2023/08/15 08:21:55;;;;;;;7.88;3.03;;;21.10;99.90;;;;;;4980096;28;20034;-86
2023/08/15 08:24:21;;;;;;;7.28;3.25;;;21.10;99.90;;;;;;4963875;28;20048;-89
2023/08/15 08:26:46;;;;;;;9.20;3.20;;;20.90;99.90;;;;;;4947404;28;20042;-88
2023/08/15 08:29:15;;;;;;;6.00;3.22;;;20.90;99.90;;;;;;4962036;28;20047;-87
2023/08/15 08:31:41;;;;;;;8.90;3.13;;;20.90;99.90;;;;;;4960355;28;20042;-89
2023/08/15 08:34:14;;;;;;;8.05;2.90;;;21.00;99.90;;;;;;4964687;28;20100;-88
2023/08/15 08:36:43;;;;;;;7.43;3.10;;;21.20;99.90;;;;;;4978081;28;20038;-89
2023/08/15 08:39:10;;;;;;;6.25;3.03;;;21.10;99.90;;;;;;4979363;28;20034;-88
2023/08/15 08:41:39;;;;;;;7.78;2.88;;;21.10;99.90;;;;;;4945963;28;20157;-88
2023/08/15 08:44:05;;;;;;;8.20;2.92;;;21.20;99.90;;;;;;4958019;28;20038;-89
2023/08/15 08:46:33;;;;;;;6.88;2.67;;;21.20;99.90;;;;;;4961701;28;20518;-88
2023/08/15 08:49:00;;;;;;;5.47;2.53;;;21.30;99.90;;;;;;4964442;28;20043;-89
2023/08/15 08:51:26;;;;;;;6.68;2.30;;;21.20;99.90;;;;;;4962131;28;20092;-87
2023/08/15 08:53:53;;;;;;;5.80;2.60;;;21.20;99.90;;;;;;4960428;28;20173;-87
2023/08/15 08:56:23;;;;;;;7.70;2.38;;;21.20;99.90;;;;;;4948492;28;20057;-88
2023/08/15 08:59:00;;;;;;;7.00;2.97;;;21.30;99.90;;;;;;4977329;28;20046;-87
2023/08/15 09:01:29;;;;;;;10.80;2.65;;;21.20;99.90;;;;;;4980089;28;20117;-87
2023/08/15 09:03:55;;;;;;;6.78;2.30;;;21.20;99.90;;;;;;4963901;28;20034;-89
2023/08/15 09:06:22;;;;;;;7.07;2.72;;;21.40;99.90;;;;;;4960681;28;20863;-88
2023/08/15 09:08:48;;;;;;;6.40;2.15;;;21.70;99.90;;;;;;4962493;28;20510;-89
2023/08/15 09:11:13;;;;;;;4.88;2.40;;;21.70;99.90;;;;;;4978377;28;20153;-88
2023/08/15 09:13:49;;;;;;;8.15;2.53;;;21.70;99.90;;;;;;4961417;28;20042;-90
2023/08/15 09:16:16;;;;;;;4.05;2.03;;;21.80;99.90;;;;;;4964705;28;20074;-88
2023/08/15 09:18:42;;;;;;;4.18;2.28;;;22.00;99.90;;;;;;4962817;28;20140;-87
2023/08/15 09:21:08;;;;;;;3.80;2.45;;;21.90;99.90;;;;;;4962685;28;20088;-88
2023/08/15 09:23:33;;;;;;;6.55;2.58;;;22.00;99.90;;;;;;4963702;28;20485;-90
2023/08/15 09:26:16;;;;;;;4.10;2.20;;;22.00;99.90;;;;;;4964625;28;20041;-87
2023/08/15 09:28:43;;;;;;;8.25;2.60;;;22.20;99.90;;;;;;4977538;28;20045;-89
2023/08/15 09:31:10;;;;;;;4.22;2.10;;;22.70;99.90;;;;;;4958854;28;20353;-87
2023/08/15 09:33:40;;;;;;;4.82;2.30;;;23.20;99.90;;;;;;4957617;28;20107;-87
2023/08/15 09:36:07;;;;;;;4.97;2.22;;;23.30;99.90;;;;;;4945488;28;20053;-89
2023/08/15 09:38:36;;;;;;;5.65;2.30;;;23.50;99.90;;;;;;4959154;28;20567;-89
2023/08/15 09:41:02;;;;;;;4.57;2.15;;;23.80;99.90;;;;;;4948474;28;20064;-88
2023/08/15 09:43:28;;;;;;;3.38;1.90;;;23.80;99.90;;;;;;4978630;28;20065;-89
2023/08/15 09:45:56;;;;;;;5.28;2.17;;;23.30;99.90;;;;;;4960519;28;20128;-88
2023/08/15 09:48:22;;;;;;;6.47;2.67;;;23.20;99.90;;;;;;4959295;28;20043;-87
2023/08/15 09:50:48;;;;;;;4.18;1.75;;;23.30;99.90;;;;;;4941680;28;20043;-88
2023/08/15 09:53:15;;;;;;;4.97;1.75;;;23.50;99.90;;;;;;4968691;28;20039;-89
2023/08/15 09:55:41;;;;;;;3.78;1.60;;;23.10;99.90;;;;;;4985745;28;20104;-88
2023/08/15 09:58:07;;;;;;;3.00;1.40;;;23.20;99.90;;;;;;4980774;28;20117;-87
2023/08/15 10:00:35;;;;;;;3.63;1.40;;;23.90;99.90;;;;;;4967127;28;20095;-90
2023/08/15 10:03:43;;;;;;;3.45;1.60;;;24.00;99.90;;;;;;4988435;28;20034;-90
2023/08/15 10:06:10;;;;;;;4.75;1.85;;;23.70;99.90;;;;;;4929769;29;20157;-89
2023/08/15 10:08:41;;;;;;;3.50;1.88;;;23.70;99.90;;;;;;4912406;29;20130;-88
2023/08/15 10:11:10;;;;;;;3.17;1.60;;;23.50;99.90;;;;;;4940123;28;20047;-88
2023/08/15 10:13:37;;;;;;;4.00;1.80;;;24.10;99.90;;;;;;4969293;28;20045;-88
2023/08/15 10:16:05;;;;;;;3.47;1.65;;;24.60;99.90;;;;;;4971458;28;20038;-90
2023/08/15 10:18:31;;;;;;;3.35;1.65;;;24.00;99.90;;;;;;4977981;28;20105;-87
2023/08/15 10:20:58;;;;;;;4.38;2.15;;;23.60;99.90;;;;;;4964748;28;20047;-89
2023/08/15 10:23:29;;;;;;;3.60;1.60;;;23.10;99.90;;;;;;4968181;28;20307;-88
2023/08/15 10:25:55;;;;;;;3.13;1.50;;;23.50;99.90;;;;;;4980312;28;20042;-90
2023/08/15 10:28:20;;;;;;;4.03;1.60;;;23.40;99.90;;;;;;4970321;28;20035;-88
2023/08/15 10:30:47;;;;;;;4.60;1.80;;;23.20;99.90;;;;;;4969596;28;20038;-88
2023/08/15 10:33:18;;;;;;;4.75;1.70;;;23.00;99.90;;;;;;4985701;28;20049;-88
2023/08/15 10:35:50;;;;;;;6.45;2.00;;;23.60;99.90;;;;;;4956846;28;20038;-87
2023/08/15 10:38:20;;;;;;;7.57;1.90;;;23.70;99.90;;;;;;4970565;28;20042;-88
2023/08/15 10:40:46;;;;;;;3.60;1.73;;;23.20;99.90;;;;;;4948921;28;20045;-89
2023/08/15 10:43:16;;;;;;;3.92;1.33;;;23.20;99.90;;;;;;4987310;28;20042;-88
2023/08/15 10:45:52;;;;;;;3.40;1.48;;;23.10;99.90;;;;;;4968716;28;20046;-88
2023/08/15 10:48:40;;;;;;;4.13;1.60;;;23.30;99.90;;;;;;4953644;28;20038;-87
2023/08/15 10:51:15;;;;;;;3.22;1.63;;;23.30;99.90;;;;;;4983443;28;20446;-89
2023/08/15 10:53:41;;;;;;;3.55;1.42;;;23.80;99.90;;;;;;4976797;28;20420;-89
2023/08/15 10:56:09;;;;;;;4.70;1.73;;;24.10;99.90;;;;;;4952923;28;20480;-89
2023/08/15 10:58:35;;;;;;;3.40;1.77;;;24.50;99.90;;;;;;4986493;28;20034;-89
2023/08/15 11:01:01;;;;;;;4.47;1.77;;;24.90;99.90;;;;;;4953053;28;20421;-88
2023/08/15 11:03:27;;;;;;;3.10;1.90;;;24.80;99.90;;;;;;4953368;28;20047;-89
2023/08/15 11:06:04;;;;;;;4.10;1.55;;;24.90;99.90;;;;;;4978815;28;20372;-89
2023/08/15 11:08:30;;;;;;;4.28;1.70;;;24.60;99.90;;;;;;4980374;28;20070;-89
2023/08/15 11:10:56;;;;;;;4.80;1.90;;;24.60;99.90;;;;;;4980890;28;20093;-88
2023/08/15 11:13:22;;;;;;;5.05;1.80;;;24.30;99.90;;;;;;4967667;28;20482;-88
2023/08/15 11:15:47;;;;;;;4.25;1.92;;;25.00;99.90;;;;;;4982816;28;20096;-88
2023/08/15 11:18:23;;;;;;;4.95;1.85;;;25.60;99.90;;;;;;4965839;28;20401;-89
2023/08/15 11:20:51;;;;;;;4.40;1.90;;;24.90;99.90;;;;;;4975676;28;20049;-88
2023/08/15 11:23:17;;;;;;;3.75;2.47;;;24.60;99.90;;;;;;4949257;28;20594;-88
2023/08/15 11:25:42;;;;;;;4.45;1.95;;;25.00;99.90;;;;;;4980291;28;20031;-88
2023/08/15 11:28:11;;;;;;;4.88;2.50;;;25.00;99.90;;;;;;4963401;28;20049;-89
2023/08/15 11:30:37;;;;;;;6.45;2.25;;;24.80;99.90;;;;;;4965770;28;20042;-90
2023/08/15 11:33:03;;;;;;;4.03;2.22;;;24.60;99.90;;;;;;4982301;28;20049;-89
2023/08/15 11:35:28;;;;;;;4.45;2.35;;;24.40;99.90;;;;;;4960793;28;20046;-89
2023/08/15 11:37:54;;;;;;;3.90;2.50;;;24.50;99.90;;;;;;4961868;28;20478;-89
2023/08/15 11:40:20;;;;;;;6.85;2.78;;;24.90;99.90;;;;;;4964792;28;20042;-88
2023/08/15 11:42:46;;;;;;;4.57;2.38;;;25.20;99.90;;;;;;4948913;28;20038;-88
2023/08/15 11:45:19;;;;;;;4.53;2.50;;;25.30;99.90;;;;;;4947049;28;20530;-88
2023/08/15 11:47:56;;;;;;;5.43;2.47;;;24.70;99.90;;;;;;4964811;28;20041;-88
2023/08/15 11:50:24;;;;;;;4.50;2.40;;;24.60;99.90;;;;;;4960764;28;20050;-89
2023/08/15 11:52:49;;;;;;;3.67;1.90;;;24.50;99.90;;;;;;4967777;28;20042;-88
2023/08/15 11:55:15;;;;;;;5.18;2.60;;;24.50;99.90;;;;;;4964592;28;20652;-89
2023/08/15 11:57:40;;;;;;;6.82;2.50;;;24.70;99.90;;;;;;4947348;28;20053;-91
2023/08/15 12:00:07;;;;;;;3.88;2.50;;;25.10;99.90;;;;;;4981291;28;20521;-89
2023/08/15 12:02:42;;;;;;;3.65;2.38;;;24.80;99.90;;;;;;4948774;28;20039;-89
2023/08/15 12:05:14;;;;;;;5.75;2.35;;;25.60;99.90;;;;;;4964108;28;20037;-88
2023/08/15 12:07:40;;;;;;;4.75;2.40;;;25.60;99.90;;;;;;4964639;28;20318;-89
2023/08/15 12:10:07;;;;;;;4.63;2.85;;;26.30;99.90;;;;;;4957077;28;20034;-89
2023/08/15 12:12:44;;;;;;;5.57;3.22;;;26.80;99.90;;;;;;4963935;28;20041;-89
2023/08/15 12:15:11;;;;;;;5.80;2.95;;;27.20;99.90;;;;;;4976959;28;20034;-89
2023/08/15 12:17:37;;;;;;;4.68;2.70;;;27.30;99.90;;;;;;4960741;28;20042;-90
2023/08/15 12:20:11;;;;;;;3.05;2.13;;;27.10;99.90;;;;;;4960817;28;20169;-89
2023/08/15 12:22:40;;;;;;;3.38;1.83;;;26.70;99.90;;;;;;4965584;28;20043;-88
2023/08/15 12:25:07;;;;;;;3.47;1.58;;;26.20;99.90;;;;;;4963308;28;20458;-88
2023/08/15 12:27:34;;;;;;;5.82;1.75;;;26.70;99.90;;;;;;4963972;28;20039;-88
2023/08/15 12:30:03;;;;;;;5.18;1.38;;;27.10;99.90;;;;;;4961040;28;20044;-89
2023/08/15 12:32:28;;;;;;;3.53;1.40;;;27.40;99.90;;;;;;4979967;28;20046;-88
2023/08/15 12:34:54;;;;;;;2.65;1.60;;;27.20;99.90;;;;;;4947156;28;20046;-90
2023/08/15 12:37:20;;;;;;;3.20;1.40;;;26.40;99.90;;;;;;4963638;28;20125;-89
2023/08/15 12:39:45;;;;;;;2.53;1.50;;;26.70;99.90;;;;;;4978905;28;20171;-88
2023/08/15 12:42:13;;;;;;;4.22;1.58;;;26.50;99.90;;;;;;4981732;28;20401;-87